createdAt,value
2023-01-31T00:01:45.171Z,102571.72
2023-01-31T00:04:13.454Z,102561.94
2023-01-31T00:06:43.145Z,102565.44
2023-01-31T00:09:13.082Z,102568.09
2023-01-31T00:11:41.634Z,102568.03
2023-01-31T00:14:11.046Z,102569.75
2023-01-31T00:16:40.232Z,102568.97
2023-01-31T00:19:08.052Z,102571.56
2023-01-31T00:21:36.188Z,102574.25
2023-01-31T00:24:05.727Z,102563.72
2023-01-31T00:26:36.171Z,102563.94
2023-01-31T00:29:06.469Z,102560.56
2023-01-31T00:31:36.239Z,102562.09
2023-01-31T00:34:05.439Z,102570.19
2023-01-31T00:36:35.154Z,102566.97
2023-01-31T00:39:05.264Z,102568.66
2023-01-31T00:41:33.415Z,102569.41
2023-01-31T00:44:01.575Z,102563.75
2023-01-31T00:46:29.729Z,102564.56
2023-01-31T00:48:57.580Z,102570.19
2023-01-31T00:51:27.839Z,102567.47
2023-01-31T00:53:56.131Z,102564.59
2023-01-31T00:56:25.738Z,102555.69
2023-01-31T00:58:54.437Z,102557.41
2023-01-31T01:01:23.957Z,102554.69
2023-01-31T01:03:52.242Z,102549.25
2023-01-31T01:06:20.414Z,102544.94
2023-01-31T01:08:49.785Z,102544.09
2023-01-31T01:11:19.673Z,102552.16
2023-01-31T01:13:48.428Z,102543.28
2023-01-31T01:16:18.812Z,102541.53
2023-01-31T01:18:49.201Z,102537.13
2023-01-31T01:21:19.129Z,102544.31
2023-01-31T01:23:47.547Z,102537.06
2023-01-31T01:26:19.150Z,102527.47
2023-01-31T01:28:47.709Z,102533.69
2023-01-31T01:31:17.218Z,102524.53
2023-01-31T01:33:45.933Z,102528.88
2023-01-31T01:36:17.233Z,102527.97
2023-01-31T01:38:46.676Z,102523.41
2023-01-31T01:41:16.736Z,102522.41
2023-01-31T01:43:46.746Z,102527.78
2023-01-31T01:46:18.459Z,102529.59
2023-01-31T01:48:49.605Z,102532.28
2023-01-31T01:51:20.054Z,102527.97
2023-01-31T01:53:51.339Z,102523.97
2023-01-31T01:56:24.804Z,102519.59
2023-01-31T01:58:56.620Z,102526.78
2023-01-31T02:01:28.503Z,102532.28
2023-01-31T02:03:56.342Z,102537.66
2023-01-31T02:06:24.523Z,102538.41
2023-01-31T02:08:52.927Z,102538.19
2023-01-31T02:11:25.182Z,102531.03
2023-01-31T02:13:59.798Z,102529.44
2023-01-31T02:16:28.041Z,102535.66
2023-01-31T02:18:56.928Z,102534.06
2023-01-31T02:22:01.200Z,102539.91
2023-01-31T02:24:41.321Z,102535.38
2023-01-31T02:27:30.347Z,102528.47
2023-01-31T02:30:20.492Z,102531.00
2023-01-31T02:33:03.877Z,102537.03
2023-01-31T02:35:48.272Z,102534.53
2023-01-31T02:38:27.451Z,102542.66
2023-01-31T02:41:06.020Z,102539.38
2023-01-31T02:44:00.644Z,102547.50
2023-01-31T02:46:39.505Z,102546.56
2023-01-31T02:49:34.438Z,102544.78
2023-01-31T02:52:17.969Z,102546.50
2023-01-31T02:55:12.558Z,102552.59
2023-01-31T02:57:42.144Z,102553.50
2023-01-31T03:00:12.392Z,102544.31
2023-01-31T03:02:40.325Z,102548.75
2023-01-31T03:05:15.450Z,102554.06
2023-01-31T03:07:49.096Z,102553.16
2023-01-31T03:10:44.804Z,102559.41
2023-01-31T03:13:26.669Z,102561.06
2023-01-31T03:16:23.444Z,102558.34
2023-01-31T03:18:56.710Z,102553.16
2023-01-31T03:21:31.778Z,102553.28
2023-01-31T03:24:00.568Z,102549.84
2023-01-31T03:26:29.757Z,102545.81
2023-01-31T03:29:01.506Z,102548.41
2023-01-31T03:31:33.880Z,102552.75
2023-01-31T03:34:05.503Z,102553.66
2023-01-31T03:36:40.885Z,102556.22
2023-01-31T03:39:16.297Z,102545.41
2023-01-31T03:41:56.602Z,102553.31
2023-01-31T03:44:32.635Z,102540.16
2023-01-31T03:47:05.484Z,102536.41
2023-01-31T03:49:35.934Z,102532.03
2023-01-31T03:52:09.154Z,102533.66
2023-01-31T03:54:42.522Z,102536.31
2023-01-31T03:57:17.108Z,102536.09
2023-01-31T03:59:48.608Z,102530.72
2023-01-31T04:02:18.558Z,102533.53
2023-01-31T04:04:50.547Z,102530.00
2023-01-31T04:07:19.750Z,102524.06
2023-01-31T04:09:47.743Z,102517.88
2023-01-31T04:12:16.535Z,102518.13
2023-01-31T04:14:44.563Z,102507.63
2023-01-31T04:17:12.312Z,102513.00
2023-01-31T04:19:40.095Z,102510.47
2023-01-31T04:22:08.058Z,102515.47
2023-01-31T04:24:37.755Z,102511.09
2023-01-31T04:27:05.577Z,102519.00
2023-01-31T04:29:33.346Z,102525.41
2023-01-31T04:32:01.227Z,102527.16
2023-01-31T04:34:29.036Z,102526.78
2023-01-31T04:36:56.975Z,102531.88
2023-01-31T04:39:24.742Z,102530.00
2023-01-31T04:41:54.013Z,102538.91
2023-01-31T04:44:21.780Z,102527.34
2023-01-31T04:46:49.597Z,102527.41
2023-01-31T04:49:17.383Z,102523.97
2023-01-31T04:51:45.244Z,102522.50
2023-01-31T04:54:13.044Z,102526.97
2023-01-31T04:56:40.813Z,102529.81
2023-01-31T04:59:09.883Z,102526.16
2023-01-31T05:01:37.703Z,102526.19
2023-01-31T05:04:05.901Z,102528.75
2023-01-31T05:06:33.642Z,102529.63
2023-01-31T05:09:01.530Z,102528.63
2023-01-31T05:11:29.814Z,102530.28
2023-01-31T05:13:57.570Z,102531.41
2023-01-31T05:16:26.759Z,102536.22
2023-01-31T05:18:54.647Z,102533.34
2023-01-31T05:21:22.418Z,102528.50
2023-01-31T05:23:50.223Z,102525.84
2023-01-31T05:26:18.033Z,102529.22
2023-01-31T05:28:45.843Z,102535.25
2023-01-31T05:31:14.274Z,102531.94
2023-01-31T05:33:44.508Z,102533.81
2023-01-31T05:36:12.323Z,102548.19
2023-01-31T05:38:40.120Z,102543.22
2023-01-31T05:41:07.970Z,102545.63
2023-01-31T05:43:36.730Z,102535.81
2023-01-31T05:46:05.199Z,102541.31
2023-01-31T05:48:33.513Z,102541.59
2023-01-31T05:51:03.234Z,102539.59
2023-01-31T05:53:31.273Z,102546.63
2023-01-31T05:55:59.012Z,102537.59
2023-01-31T05:58:26.745Z,102542.97
2023-01-31T06:00:57.227Z,102540.16
2023-01-31T06:03:25.144Z,102541.97
2023-01-31T06:05:52.926Z,102543.78
2023-01-31T06:08:22.072Z,102544.50
2023-01-31T06:10:49.811Z,102546.03
2023-01-31T06:13:17.622Z,102546.91
2023-01-31T06:15:45.891Z,102542.72
2023-01-31T06:18:14.588Z,102538.53
2023-01-31T06:20:42.490Z,102545.44
2023-01-31T06:23:10.208Z,102548.81
2023-01-31T06:25:39.392Z,102556.94
2023-01-31T06:28:07.206Z,102555.41
2023-01-31T06:30:35.061Z,102559.91
2023-01-31T06:33:03.356Z,102548.31
2023-01-31T06:35:33.826Z,102544.72
2023-01-31T06:38:01.596Z,102542.00
2023-01-31T06:40:30.747Z,102547.19
2023-01-31T06:43:00.368Z,102558.09
2023-01-31T06:45:28.133Z,102557.00
2023-01-31T06:47:56.094Z,102553.22
2023-01-31T06:50:23.993Z,102555.81
2023-01-31T06:52:51.710Z,102558.34
2023-01-31T06:55:19.971Z,102558.31
2023-01-31T06:57:48.801Z,102563.53
2023-01-31T07:00:19.601Z,102565.47
2023-01-31T07:02:47.853Z,102572.91
2023-01-31T07:05:16.017Z,102570.50
2023-01-31T07:07:43.772Z,102575.00
2023-01-31T07:10:12.456Z,102573.03
2023-01-31T07:12:40.371Z,102578.31
2023-01-31T07:15:09.536Z,102588.88
2023-01-31T07:17:38.668Z,102582.81
2023-01-31T07:20:07.647Z,102588.28
2023-01-31T07:22:35.480Z,102582.88
2023-01-31T07:25:03.224Z,102580.28
2023-01-31T07:27:31.234Z,102579.50
2023-01-31T07:29:59.021Z,102590.78
2023-01-31T07:32:31.037Z,102576.34
2023-01-31T07:35:00.250Z,102581.69
2023-01-31T07:37:28.019Z,102587.72
2023-01-31T07:39:55.772Z,102583.22
2023-01-31T07:42:23.541Z,102589.63
2023-01-31T07:44:51.326Z,102592.25
2023-01-31T07:47:19.130Z,102594.31
2023-01-31T07:49:46.848Z,102602.59
2023-01-31T07:52:15.918Z,102587.41
2023-01-31T07:54:43.673Z,102594.56
2023-01-31T07:57:11.786Z,102591.81
2023-01-31T07:59:39.682Z,102599.06
2023-01-31T08:02:28.683Z,102597.13
2023-01-31T08:04:56.594Z,102585.47
2023-01-31T08:07:27.116Z,102592.31
2023-01-31T08:09:55.218Z,102590.41
2023-01-31T08:12:23.158Z,102589.66
2023-01-31T08:14:50.867Z,102587.06
2023-01-31T08:17:18.715Z,102586.09
2023-01-31T08:19:46.486Z,102588.97
2023-01-31T08:22:14.325Z,102577.16
2023-01-31T08:24:43.447Z,102581.34
2023-01-31T08:27:11.224Z,102578.44
2023-01-31T08:29:38.999Z,102577.81
2023-01-31T08:32:07.525Z,102579.53
2023-01-31T08:34:35.442Z,102581.69
2023-01-31T08:37:03.239Z,102592.31
2023-01-31T08:39:30.998Z,102589.91
2023-01-31T08:42:00.163Z,102591.47
2023-01-31T08:44:27.931Z,102594.19
2023-01-31T08:46:55.682Z,102585.22
2023-01-31T08:49:23.491Z,102590.59
2023-01-31T08:51:51.268Z,102595.81
2023-01-31T08:54:19.040Z,102599.91
2023-01-31T08:56:46.816Z,102603.50
2023-01-31T08:59:16.065Z,102609.75
2023-01-31T09:01:46.539Z,102609.47
2023-01-31T09:04:14.399Z,102618.25
2023-01-31T09:06:42.229Z,102616.41
2023-01-31T09:09:10.922Z,102618.00
2023-01-31T09:11:39.578Z,102616.28
2023-01-31T09:14:07.435Z,102621.59
2023-01-31T09:16:36.620Z,102620.72
2023-01-31T09:19:04.519Z,102624.16
2023-01-31T09:21:32.516Z,102630.03
2023-01-31T09:24:03.826Z,102628.41
2023-01-31T09:26:32.268Z,102631.91
2023-01-31T09:29:01.561Z,102640.84
2023-01-31T09:31:30.208Z,102636.69
2023-01-31T09:33:59.461Z,102640.41
2023-01-31T09:36:27.831Z,102646.81
2023-01-31T09:38:56.945Z,102645.97
2023-01-31T09:41:31.137Z,102652.06
2023-01-31T09:44:02.876Z,102650.13
2023-01-31T09:46:37.265Z,102656.22
2023-01-31T09:49:11.930Z,102654.16
2023-01-31T09:51:41.163Z,102651.97
2023-01-31T09:54:20.757Z,102657.41
2023-01-31T09:56:58.787Z,102668.88
2023-01-31T09:59:33.573Z,102669.47
2023-01-31T10:02:11.825Z,102662.06
2023-01-31T10:04:59.180Z,102665.47
2023-01-31T10:07:32.115Z,102672.19
2023-01-31T10:10:07.829Z,102660.41
2023-01-31T10:12:41.974Z,102659.78
2023-01-31T10:15:19.036Z,102660.13
2023-01-31T10:17:50.952Z,102664.63
2023-01-31T10:20:22.942Z,102667.94
2023-01-31T10:22:59.408Z,102667.25
2023-01-31T10:25:29.185Z,102670.63
2023-01-31T10:28:03.516Z,102672.78
2023-01-31T10:30:41.291Z,102672.94
2023-01-31T10:33:21.483Z,102667.63
2023-01-31T10:35:53.735Z,102666.41
2023-01-31T10:38:27.821Z,102667.34
2023-01-31T10:41:01.846Z,102674.75
2023-01-31T10:43:40.733Z,102674.94
2023-01-31T10:46:12.787Z,102680.84
2023-01-31T10:48:45.124Z,102679.97
2023-01-31T10:51:30.991Z,102684.44
2023-01-31T10:54:14.926Z,102679.09
2023-01-31T10:56:45.358Z,102678.91
2023-01-31T10:59:20.256Z,102676.69
2023-01-31T11:01:48.123Z,102672.44
2023-01-31T11:04:25.388Z,102681.56
2023-01-31T11:06:55.391Z,102686.00
2023-01-31T11:09:25.600Z,102690.44
2023-01-31T11:11:58.431Z,102686.22
2023-01-31T11:14:26.603Z,102680.22
2023-01-31T11:17:01.226Z,102679.53
2023-01-31T11:19:35.661Z,102688.41
2023-01-31T11:22:05.631Z,102678.78
2023-01-31T11:24:35.575Z,102682.91
2023-01-31T11:27:07.061Z,102679.28
2023-01-31T11:29:39.149Z,102670.25
2023-01-31T11:32:18.862Z,102663.06
2023-01-31T11:34:57.963Z,102654.13
2023-01-31T11:37:28.480Z,102657.47
2023-01-31T11:39:58.246Z,102652.94
2023-01-31T11:42:26.617Z,102657.59
2023-01-31T11:44:59.898Z,102645.78
2023-01-31T11:47:34.128Z,102650.97
2023-01-31T11:50:03.669Z,102648.34
2023-01-31T11:52:35.591Z,102643.09
2023-01-31T11:55:07.724Z,102639.84
2023-01-31T11:57:39.339Z,102636.19
2023-01-31T12:00:21.855Z,102633.97
2023-01-31T12:02:54.859Z,102635.00
2023-01-31T12:05:35.470Z,102622.91
2023-01-31T12:08:04.873Z,102633.81
2023-01-31T12:10:37.175Z,102629.44
2023-01-31T12:13:19.000Z,102617.91
2023-01-31T12:15:52.292Z,102620.06
2023-01-31T12:18:42.240Z,102616.41
2023-01-31T12:21:15.871Z,102601.94
2023-01-31T12:23:59.430Z,102599.41
2023-01-31T12:26:35.687Z,102599.53
2023-01-31T12:29:17.291Z,102596.50
2023-01-31T12:32:09.992Z,102591.47
2023-01-31T12:35:02.446Z,102596.56
2023-01-31T12:37:46.954Z,102587.06
2023-01-31T12:40:35.870Z,102586.22
2023-01-31T12:43:06.524Z,102575.19
2023-01-31T12:45:50.599Z,102575.59
2023-01-31T12:48:47.983Z,102574.38
2023-01-31T12:51:29.860Z,102566.09
2023-01-31T12:54:11.659Z,102557.53
2023-01-31T12:56:58.221Z,102557.91
2023-01-31T12:59:38.973Z,102561.31
2023-01-31T13:02:24.317Z,102556.59
2023-01-31T13:04:56.869Z,102545.28
2023-01-31T13:07:31.965Z,102543.19
2023-01-31T13:10:04.503Z,102539.50
2023-01-31T13:12:36.083Z,102541.59
2023-01-31T13:15:07.869Z,102528.66
2023-01-31T13:17:40.758Z,102529.19
2023-01-31T13:20:27.259Z,102525.69
2023-01-31T13:23:00.027Z,102524.16
2023-01-31T13:25:38.368Z,102519.00
2023-01-31T13:28:16.228Z,102514.53
2023-01-31T13:30:47.554Z,102504.34
2023-01-31T13:33:24.755Z,102504.72
2023-01-31T13:36:02.904Z,102516.06
2023-01-31T13:38:38.436Z,102503.38
2023-01-31T13:41:09.490Z,102504.78
2023-01-31T13:43:38.563Z,102507.53
2023-01-31T13:46:10.499Z,102516.50
2023-01-31T13:48:41.942Z,102509.81
2023-01-31T13:51:17.838Z,102497.56
2023-01-31T13:53:50.727Z,102503.75
2023-01-31T13:56:26.471Z,102503.50
2023-01-31T13:58:56.811Z,102503.19
2023-01-31T14:01:27.181Z,102492.56
2023-01-31T14:04:28.265Z,102491.56
2023-01-31T14:07:11.822Z,102489.06
2023-01-31T14:09:43.359Z,102492.00
2023-01-31T14:12:35.864Z,102490.63
2023-01-31T14:15:51.145Z,102484.84
2023-01-31T14:18:51.531Z,102476.81
2023-01-31T14:21:45.859Z,102477.50
2023-01-31T14:24:21.960Z,102473.38
2023-01-31T14:26:55.286Z,102479.22
2023-01-31T14:29:24.269Z,102471.81
2023-01-31T14:31:56.805Z,102471.28
2023-01-31T14:34:27.286Z,102470.63
2023-01-31T14:37:09.448Z,102468.88
2023-01-31T14:39:55.449Z,102468.06
2023-01-31T14:42:54.232Z,102468.03
2023-01-31T14:45:57.336Z,102469.91
2023-01-31T14:48:43.566Z,102457.22
2023-01-31T14:51:21.596Z,102470.50
2023-01-31T14:54:05.585Z,102463.19
2023-01-31T14:56:52.383Z,102465.22
2023-01-31T14:59:30.000Z,102467.06
2023-01-31T15:01:58.839Z,102473.63
2023-01-31T15:04:29.066Z,102473.63
2023-01-31T15:06:58.234Z,102460.84
2023-01-31T15:09:38.061Z,102471.44
2023-01-31T15:12:07.991Z,102465.09
2023-01-31T15:14:41.062Z,102459.66
2023-01-31T15:17:27.613Z,102460.34
2023-01-31T15:20:15.427Z,102458.38
2023-01-31T15:22:45.226Z,102464.34
2023-01-31T15:25:25.729Z,102461.53
2023-01-31T15:27:56.671Z,102471.56
2023-01-31T15:30:26.001Z,102468.75
2023-01-31T15:32:57.976Z,102472.19
2023-01-31T15:35:30.978Z,102468.44
2023-01-31T15:38:03.417Z,102467.41
2023-01-31T15:40:32.040Z,102464.59
2023-01-31T15:43:18.108Z,102472.81
2023-01-31T15:45:47.754Z,102474.00
2023-01-31T15:48:17.428Z,102474.69
2023-01-31T15:50:54.708Z,102457.09
2023-01-31T15:53:24.447Z,102452.13
2023-01-31T15:55:55.423Z,102462.94
2023-01-31T15:58:25.771Z,102467.09
2023-01-31T16:00:55.919Z,102465.38
2023-01-31T16:03:27.415Z,102473.13
2023-01-31T16:05:58.440Z,102477.03
2023-01-31T16:08:30.124Z,102470.94
2023-01-31T16:10:59.105Z,102471.13
2023-01-31T16:13:27.829Z,102471.47
2023-01-31T16:15:55.861Z,102466.00
2023-01-31T16:18:24.486Z,102465.13
2023-01-31T16:20:54.367Z,102474.38
2023-01-31T16:23:31.720Z,102473.88
2023-01-31T16:26:07.411Z,102468.44
2023-01-31T16:28:40.526Z,102473.59
2023-01-31T16:31:10.540Z,102470.16
2023-01-31T16:33:40.346Z,102475.56
2023-01-31T16:36:15.164Z,102483.56
2023-01-31T16:38:57.413Z,102488.88
2023-01-31T16:41:40.231Z,102499.19
2023-01-31T16:44:14.590Z,102510.34
2023-01-31T16:46:45.995Z,102507.56
2023-01-31T16:49:23.427Z,102507.50
2023-01-31T16:51:52.170Z,102518.13
2023-01-31T16:54:23.403Z,102521.16
2023-01-31T16:57:07.932Z,102521.66
2023-01-31T16:59:48.898Z,102511.47
2023-01-31T17:02:21.562Z,102510.34
2023-01-31T17:04:51.773Z,102491.78
2023-01-31T17:07:22.338Z,102501.22
2023-01-31T17:09:55.649Z,102502.63
2023-01-31T17:12:24.858Z,102508.63
2023-01-31T17:15:00.165Z,102503.34
2023-01-31T17:17:30.993Z,102498.94
2023-01-31T17:19:58.786Z,102491.91
2023-01-31T17:22:26.779Z,102474.59
2023-01-31T17:24:55.898Z,102469.97
2023-01-31T17:27:25.052Z,102482.34
2023-01-31T17:29:52.962Z,102480.97
2023-01-31T17:32:22.293Z,102478.88
2023-01-31T17:34:50.059Z,102485.00
2023-01-31T17:37:26.789Z,102494.59
2023-01-31T17:40:00.890Z,102500.69
2023-01-31T17:42:28.673Z,102500.53
2023-01-31T17:44:56.403Z,102496.09
2023-01-31T17:47:26.882Z,102496.34
2023-01-31T17:49:54.850Z,102505.94
2023-01-31T17:52:22.637Z,102507.72
2023-01-31T17:54:50.660Z,102500.31
2023-01-31T17:57:19.863Z,102490.50
2023-01-31T17:59:47.579Z,102502.06
2023-01-31T18:02:15.365Z,102504.97
2023-01-31T18:04:44.338Z,102509.94
2023-01-31T18:07:16.449Z,102500.06
2023-01-31T18:09:44.295Z,102501.78
2023-01-31T18:12:12.080Z,102498.38
2023-01-31T18:14:41.291Z,102498.38
2023-01-31T18:17:09.142Z,102500.19
2023-01-31T18:19:37.094Z,102501.94
2023-01-31T18:22:04.841Z,102500.09
2023-01-31T18:24:32.936Z,102500.94
2023-01-31T18:27:01.128Z,102503.72
2023-01-31T18:29:29.769Z,102505.56
2023-01-31T18:32:02.546Z,102505.69
2023-01-31T18:34:30.649Z,102512.78
2023-01-31T18:36:58.532Z,102516.41
2023-01-31T18:39:26.415Z,102511.09
2023-01-31T18:41:54.304Z,102507.50
2023-01-31T18:44:22.012Z,102512.88
2023-01-31T18:46:49.879Z,102518.66
2023-01-31T18:49:20.179Z,102509.63
2023-01-31T18:51:49.641Z,102507.88
2023-01-31T18:54:17.430Z,102514.69
2023-01-31T18:56:45.342Z,102521.91
2023-01-31T18:59:13.026Z,102516.56
2023-01-31T19:01:43.161Z,102518.13
2023-01-31T19:04:11.333Z,102522.06
2023-01-31T19:06:41.529Z,102523.47
2023-01-31T19:09:10.183Z,102529.75
2023-01-31T19:11:38.064Z,102531.41
2023-01-31T19:14:07.515Z,102528.94
2023-01-31T19:16:39.822Z,102519.50
2023-01-31T19:19:08.328Z,102513.00
2023-01-31T19:21:37.352Z,102515.13
2023-01-31T19:24:08.540Z,102517.66
2023-01-31T19:26:36.988Z,102515.94
2023-01-31T19:29:08.058Z,102515.09
2023-01-31T19:31:37.165Z,102516.94
2023-01-31T19:34:06.658Z,102512.69
2023-01-31T19:36:36.618Z,102515.31
2023-01-31T19:39:08.353Z,102503.78
2023-01-31T19:41:36.487Z,102515.41
2023-01-31T19:44:05.072Z,102513.94
2023-01-31T19:46:35.732Z,102515.50
2023-01-31T19:49:03.827Z,102518.78
2023-01-31T19:51:31.905Z,102524.00
2023-01-31T19:54:02.749Z,102529.34
2023-01-31T19:56:32.587Z,102527.38
2023-01-31T19:59:00.946Z,102526.66
2023-01-31T20:01:28.737Z,102526.63
2023-01-31T20:03:56.508Z,102530.19
2023-01-31T20:06:26.586Z,102526.63
2023-01-31T20:08:56.462Z,102522.81
2023-01-31T20:11:25.069Z,102517.25
2023-01-31T20:13:55.483Z,102526.91
2023-01-31T20:16:23.476Z,102531.16
2023-01-31T20:18:51.577Z,102526.03
2023-01-31T20:21:21.008Z,102526.00
2023-01-31T20:23:49.603Z,102528.91
2023-01-31T20:26:18.588Z,102536.91
2023-01-31T20:28:46.468Z,102540.38
2023-01-31T20:31:16.870Z,102534.38
2023-01-31T20:33:45.008Z,102544.56
2023-01-31T20:36:13.411Z,102549.84
2023-01-31T20:38:41.711Z,102552.22
2023-01-31T20:41:10.005Z,102554.81
2023-01-31T20:43:38.537Z,102544.97
2023-01-31T20:46:08.141Z,102554.56
2023-01-31T20:48:37.668Z,102555.25
2023-01-31T20:51:05.862Z,102558.06
2023-01-31T20:53:34.565Z,102559.84
2023-01-31T20:56:04.235Z,102561.09
2023-01-31T20:58:33.816Z,102554.53
2023-01-31T21:01:05.489Z,102565.91
2023-01-31T21:03:35.003Z,102562.31
2023-01-31T21:06:05.005Z,102566.41
2023-01-31T21:08:32.965Z,102564.25
2023-01-31T21:11:00.973Z,102569.13
2023-01-31T21:13:30.025Z,102565.88
2023-01-31T21:15:59.348Z,102567.97
2023-01-31T21:18:28.746Z,102565.91
2023-01-31T21:20:56.585Z,102569.69
2023-01-31T21:23:26.084Z,102561.59
2023-01-31T21:25:54.539Z,102566.91
2023-01-31T21:28:27.198Z,102561.31
2023-01-31T21:30:59.920Z,102561.03
2023-01-31T21:33:28.104Z,102559.59
2023-01-31T21:36:01.304Z,102561.44
2023-01-31T21:38:30.395Z,102560.59
2023-01-31T21:41:15.657Z,102563.75
2023-01-31T21:43:43.778Z,102563.63
2023-01-31T21:46:13.070Z,102562.63
2023-01-31T21:48:41.511Z,102563.69
2023-01-31T21:51:12.323Z,102556.19
2023-01-31T21:53:42.211Z,102556.66
2023-01-31T21:56:12.240Z,102546.31
2023-01-31T21:58:40.763Z,102556.19
2023-01-31T22:01:11.122Z,102549.75
2023-01-31T22:03:42.482Z,102552.25
2023-01-31T22:06:12.115Z,102550.66
2023-01-31T22:08:41.319Z,102555.28
2023-01-31T22:11:10.722Z,102554.16
2023-01-31T22:13:39.132Z,102553.31
2023-01-31T22:16:09.708Z,102554.19
2023-01-31T22:18:38.473Z,102556.53
2023-01-31T22:21:08.002Z,102551.44
2023-01-31T22:23:37.601Z,102547.84
2023-01-31T22:26:09.197Z,102544.34
2023-01-31T22:28:38.110Z,102533.81
2023-01-31T22:31:07.659Z,102540.94
2023-01-31T22:33:38.007Z,102533.19
2023-01-31T22:36:07.463Z,102533.47
2023-01-31T22:38:35.818Z,102540.44
2023-01-31T22:41:07.232Z,102541.13
2023-01-31T22:43:39.545Z,102545.31
2023-01-31T22:46:08.849Z,102548.19
2023-01-31T22:48:37.038Z,102548.81
2023-01-31T22:51:06.910Z,102550.53
2023-01-31T22:53:36.069Z,102553.28
2023-01-31T22:56:05.713Z,102554.19
2023-01-31T22:58:33.791Z,102558.00
2023-01-31T23:01:03.422Z,102555.38
2023-01-31T23:03:31.182Z,102561.03
2023-01-31T23:05:58.850Z,102566.41
2023-01-31T23:08:26.701Z,102559.94
2023-01-31T23:10:54.521Z,102566.56
2023-01-31T23:13:22.256Z,102566.88
2023-01-31T23:15:50.118Z,102568.97
2023-01-31T23:18:19.276Z,102563.63
2023-01-31T23:20:47.073Z,102560.94
2023-01-31T23:23:14.822Z,102559.28
2023-01-31T23:25:42.550Z,102561.75
2023-01-31T23:28:10.323Z,102559.84
2023-01-31T23:30:38.139Z,102563.13
2023-01-31T23:33:05.996Z,102564.13
2023-01-31T23:35:35.148Z,102565.31
2023-01-31T23:38:03.398Z,102558.91
2023-01-31T23:40:31.123Z,102561.28
2023-01-31T23:42:58.866Z,102564.84
2023-01-31T23:45:26.637Z,102569.03
2023-01-31T23:47:54.326Z,102572.94
2023-01-31T23:50:22.388Z,102559.91
2023-01-31T23:52:52.015Z,102565.16
2023-01-31T23:55:22.695Z,102570.28
2023-01-31T23:57:50.677Z,102567.63
